Terminal Aerodrome Forecast
Issued by NWS

Home | Current Version | Previous Version | Text Only | Print | Product List | Glossary On
Versions: 1 2 3 4 5 6 7 8 9 10 11 12
000
FTUS45 KRIW 310500
TAFRKS
TAF
KRKS 310523Z 3106/0106 15008KT P6SM SCT130
     FM312000 20012G20KT P6SM SCT130
     FM010100 17009KT P6SM SCT130=

USA.gov is the U.S. government's official web portal to all federal, state and local government web resources and services.